Portada
METAR-TAF:

METAR-TAF

Aeropuertos :

Aeropuerto de Logroño-Agoncillo

Logroño, España

latitud: 42-27N, longitud: 002-20W, altitud: 353 m

Observación

El informe se hizo hace 21 minutos, a las 08:00 UTC
Viento 4 kt del oeste, variando entre sur y oeste-noroeste
Temperatura 1°C
Humedad 100%
Presión 1033 hPa
Visibilidad: 3000 m
neblina

METAR: LELO 220800Z 26004KT 180V290 3000 BR NSC 01/01 Q1033

Hora: 09:21 (08:21 UTC)

Pronóstico

El informe se hizo hace 3 horas y 21 minutos, a las 05:00 UTC
Pronóstico válido del 22 a las 06 UTC al 22 a las 15 UTC
Viento 4 kt con dirección variable
Visibilidad 10 km o más
sin nubes por debajo de 1500 m y sin presencia de cumulonimbus.
Probabilidad 40% :
Temporalmente
del 22 a las 06 UTC al 22 a las 09 UTC
Visibilidad: 3000 m
neblina

TAF: LELO 220500Z 2206/2215 VRB04KT CAVOK PROB40 TEMPO 2206/2209 3000 BR NSC

Observaciones y pronósticos meteorológicos de más de 4000 aeropuertos (mensajes METAR y TAF).

Los puntos amarillos y rojos representan las estaciones disponibles.

Ponga el ratón en el punto deseado para ver el nombre de la estación.

Haga clic para ver las observaciones y los pronósticos meteorológicos.

Para cambiar el mapa : haga clic en los botones verdes con una cruz de color negro para hacer un zoom, en el botón verde con un guión para alejar o en las flechas verdes para mapas adyacentes.


METAR-TAF: